This is the latest recevied weather packets stored in our database for station/object M0SDM. If no packets are shown the sender has not sent any weather packets the latest 10 day(s).
| Time | Temp. | Humidity | Pressure | Rain* | Wind** | Luminosity | Snow |
|---|---|---|---|---|---|---|---|
| 1777994721 | 15.56° C | 55% | 1010.6 hPa | 0 mm | - | - | - |
| 1777993821 | 15.56° C | 55% | 1011 hPa | 0 mm | - | - | - |
| 1777992921 | 15.56° C | 55% | 1011 hPa | 0 mm | - | - | - |
| 1777992021 | 15.56° C | 57% | 1011 hPa | 0 mm | - | - | - |
| 1777991121 | 15.56° C | 56% | 1010.8 hPa | 0 mm | - | - | - |
| 1777989321 | 15.56° C | 57% | 1010.8 hPa | 0 mm | - | - | - |
| 1777988421 | 15.56° C | 57% | 1011 hPa | 0 mm | - | - | - |
| 1777987521 | 15.56° C | 59% | 1010.9 hPa | 0 mm | - | - | - |
| 1777986621 | 15° C | 60% | 1011 hPa | 0 mm | - | - | - |
| 1777985721 | 15° C | 61% | 1010.8 hPa | 0 mm | - | - | - |
| 1777984821 | 15° C | 59% | 1010.9 hPa | 0 mm | - | - | - |
| 1777983921 | 15° C | 59% | 1010.9 hPa | 0 mm | - | - | - |
| 1777983021 | 15.56° C | 57% | 1010.9 hPa | 0 mm | - | - | - |
| 1777982121 | 15.56° C | 57% | 1010.9 hPa | 0 mm | - | - | - |
| 1777981221 | 15.56° C | 59% | 1011.2 hPa | 0 mm | - | - | - |
| 1777980321 | 16.11° C | 56% | 1011.5 hPa | 0 mm | - | - | - |
| 1777979421 | 15.56° C | 60% | 1011.7 hPa | 0 mm | - | - | - |
| 1777978521 | 15° C | 61% | 1011.9 hPa | 0 mm | - | - | - |
| 1777977621 | 15° C | 61% | 1012.1 hPa | 0 mm | - | - | - |
| 1777976721 | 14.44° C | 66% | 1012.4 hPa | 0 mm | - | - | - |
| 1777975821 | 14.44° C | 67% | 1012.5 hPa | 0 mm | - | - | - |
| 1777974921 | 14.44° C | 68% | 1012.5 hPa | 0 mm | - | - | - |
| 1777974021 | 13.89° C | 69% | 1012.7 hPa | 0 mm | - | - | - |
| 1777973121 | 14.44° C | 71% | 1012.9 hPa | 0 mm | - | - | - |
| 1777972221 | 13.33° C | 73% | 1013.1 hPa | 0 mm | - | - | - |
* Rain latest hour (hover to see other rain measurements)
** Current wind speed in m/s (hover to see current wind gust speed)